x

9444090 - Port Angeles, Wa (ptaw1) Weather Station

3:36 - Fri 31st Jul 2015 All times are PDT. -7 hours from GMT.

  • Wind
    10mph, 15mph gusts
  • Sea Temp 54°f
  • Aire Temp 66°f
  • Sea Pressure 1017.9mb
  • 9444090 - Port Angeles, Wa
  • 9444090 - Port Angeles, Wa

More Historic Weather Station data

Upgrade to MSW Pro to gain access to the past 30 days of data for over 8000 Wavebouys and Weather Stations around the globe.

Join Pro

Comparision Forecast

View Surf forecast
   
vie 07/31 3:36 10 15 mph 1017.9mb 54f 66f
3:30 14 18 mph 1018mb 54f 66f
3:24 17 20 mph 1018mb 54f 65f
3:18 17 20 mph 1018.1mb 53f 64f
3:12 16 20 mph 1018.2mb 53f 64f
3:06 14 18 mph 1018.3mb 53f 64f
3:00 16 18 mph 1018.3mb 53f 63f
2:36 16 18 mph 1018.5mb 53f 64f
2:30 17 18 mph 1018.5mb 53f 65f
2:24 17 20 mph 1018.6mb 54f 65f
2:18 17 20 mph 1018.6mb 54f 64f
2:12 15 18 mph 1018.6mb 53f 64f
2:06 16 18 mph 1018.7mb 53f 64f
2:00 17 20 mph 1018.7mb 53f 63f
1:36 16 17 mph 1018.7mb 53f 63f
1:30 17 20 mph 1018.8mb 53f 63f
1:24 14 17 mph 1018.8mb 53f 63f
1:18 14 16 mph 1018.8mb 54f 64f
1:12 14 16 mph 1018.9mb 54f 62f
1:06 13 14 mph 1018.9mb 54f 62f
1:00 8 10 mph 1018.9mb 54f 66f
12:36 7 8 mph 1019.1mb 54f 63f
12:30 7 8 mph 1019.1mb 54f 65f
12:24 6 7 mph 1019.1mb 54f 65f
12:18 7 9 mph 1019.2mb 54f 66f
12:12 7 9 mph 1019.2mb 54f 65f
12:06 8 9 mph 1019.3mb 54f 64f
12:00 7 9 mph 1019.3mb 54f 65f
11:36 7 8 mph 1019.5mb 54f 65f
11:30 3 6 mph 1019.6mb 54f 64f
11:24 3 5 mph 1019.6mb 53f 63f
11:18 2 5 mph 1019.6mb 53f 65f
11:12 3 5 mph 1019.6mb 53f 65f
11:06 3 6 mph 1019.6mb 53f 64f
11:00 3 6 mph 1019.6mb 53f 62f
10:36 6 7 mph 1019.6mb 53f 60f
10:30 6 8 mph 1019.6mb 53f 61f
10:24 7 8 mph 1019.6mb 53f 62f
10:18 7 8 mph 1019.6mb 53f 60f
10:12 6 8 mph 1019.7mb 53f 59f
10:06 6 8 mph 1019.7mb 53f 59f
10:00 6 8 mph 1019.7mb 54f 59f
9:36 7 10 mph 1019.7mb 54f 59f
9:30 9 11 mph 1019.7mb 54f 59f
9:24 9 13 mph 1019.7mb 54f 59f
9:18 9 11 mph 1019.7mb 54f 60f
9:12 8 14 mph 1019.7mb 54f 61f
9:06 7 13 mph 1019.7mb 54f 60f
9:00 8 10 mph 1019.8mb 54f 60f
8:36 7 13 mph 1019.7mb 54f 60f
8:30 9 11 mph 1019.8mb 54f 60f
8:24 7 11 mph 1019.7mb 54f 60f
8:18 9 13 mph 1019.7mb 54f 59f
8:12 9 11 mph 1019.6mb 54f 60f
8:06 9 11 mph 1019.6mb 54f 59f
8:00 6 7 mph 1019.5mb 54f 59f
7:36 3
mph
1019.4mb 54f 61f
7:30 2 5 mph 1019.4mb 54f 61f
7:24 1 2 mph 1019.4mb 54f 62f
7:18 2 3 mph 1019.3mb 54f 63f
7:12 1 2 mph 1019.3mb 54f 62f
7:06 1 2 mph 1019.2mb 54f 61f
7:00  -  1 mph 1019.1mb 54f 61f
6:36 3 5 mph 1018.9mb 54f 58f
6:30 3 5 mph 1018.9mb 54f 58f
6:24 3
mph
1018.9mb 53f 57f
6:18  -  2 mph 1018.9mb 53f 57f
6:12 2 6 mph 1018.9mb 53f 57f
6:06 2 5 mph 1018.8mb 53f 56f
6:00 3 6 mph 1018.7mb 53f 56f
5:36 6 7 mph 1018.5mb 54f 57f
5:30 1 5 mph 1018.4mb 54f 57f
5:24 5 6 mph 1018.5mb 54f 57f
5:18 5 6 mph 1018.5mb 54f 57f
5:12 3 5 mph 1018.5mb 54f 58f
5:06 2 6 mph 1018.6mb 54f 58f
5:00 3 5 mph 1018.5mb 54f 58f
4:36  -  2 mph 1018.5mb 54f 59f
4:30 2 6 mph 1018.5mb 54f 58f
4:24 1 7 mph 1018.4mb 54f 58f
4:18 7 10 mph 1018.3mb 54f 58f
4:12 8 13 mph 1018.2mb 54f 58f
4:06 9 14 mph 1018.2mb 54f 58f
4:00 10 17 mph 1018.2mb 54f 58f
3:36 10 15 mph 1018.1mb 54f 59f
3:30 8 10 mph 1018.1mb 54f 59f
3:24 9 13 mph 1018mb 54f 59f
3:18 7 9 mph 1018mb 54f 59f
3:12  -  2 mph 1018mb 54f 59f
3:06  -  2 mph 1018mb 54f 59f
3:00 3 6 mph 1017.9mb 54f 59f
2:36 2 5 mph 1017.8mb 54f 59f
2:30  -  5 mph 1017.8mb 54f 60f
2:24 3 6 mph 1017.7mb 54f 59f
2:18 3 7 mph 1017.6mb 54f 60f
2:12 7 10 mph 1017.6mb 53f 61f
2:06 9 10 mph 1017.6mb 53f 60f
2:00 10 11 mph 1017.5mb 53f 60f
1:36 9 11 mph 1017.4mb 52f 61f
1:30 9 10 mph 1017.4mb 52f 61f
1:24 8 10 mph 1017.5mb 52f 61f
1:18 8 10 mph 1017.5mb 52f 61f
1:12 8 13 mph 1017.5mb 52f 60f
1:06 11 15 mph 1017.4mb 52f 60f
1:00 13 16 mph 1017.4mb 52f 60f
12:36 11 15 mph 1017.5mb 53f 60f
12:30 7 13 mph 1017.5mb 53f 60f
12:24 11 15 mph 1017.4mb 53f 60f
12:18 11 15 mph 1017.4mb 53f 60f
12:12 10 13 mph 1017.3mb 53f 60f
12:06 11 14 mph 1017.4mb 53f 61f
12:00 10 14 mph 1017.4mb 53f 62f
jue 07/30 11:36 9 11 mph 1017.4mb 53f 64f
11:30 6 8 mph 1017.5mb 53f 63f
11:24 6 8 mph 1017.5mb 53f 63f
11:18 7 9 mph 1017.6mb 53f 63f
11:12 5 8 mph 1017.6mb 53f 64f
11:06 7 10 mph 1017.6mb 53f 64f
11:00 9 13 mph 1017.6mb 53f 64f
10:36 5 6 mph 1017.6mb 53f 67f
10:30 6 8 mph 1017.7mb 53f 66f
10:24 8 10 mph 1017.6mb 53f 65f
10:18 7 9 mph 1017.7mb 53f 65f
10:12 6 8 mph 1017.7mb 53f 66f
10:06 5 7 mph 1017.7mb 53f 66f
10:00 5 6 mph 1017.7mb 54f 70f
9:36 3 8 mph 1017.5mb 54f 71f
9:30 6 9 mph 1017.5mb 54f 72f
9:24 7 10 mph 1017.4mb 54f 71f
9:18 6 11 mph 1017.4mb 54f 71f
9:12 6 8 mph 1017.4mb 55f 72f
9:06 3 9 mph 1017.4mb 55f 72f
9:00 5 7 mph 1017.3mb 55f 72f
8:36 8 10 mph 1017.2mb 55f 70f
8:30 9 10 mph 1017.2mb 55f 69f
8:24 8 10 mph 1017.2mb 55f 70f
8:18 6 10 mph 1017.2mb 55f 70f
8:12 9 10 mph 1017.2mb 55f 69f
8:06 9 11 mph 1017.2mb 55f 70f
8:00 9 11 mph 1017.2mb 55f 69f
7:36 10 14 mph 1017.3mb 55f 68f
7:30 11 13 mph 1017.3mb 55f 69f
7:24 10 14 mph 1017.3mb 55f 70f
7:18 14 15 mph 1017.3mb 55f 70f
7:12 13 15 mph 1017.3mb 55f 68f
7:06 14 16 mph 1017.3mb 55f 68f
7:00 15 18 mph 1017.3mb 55f 70f
6:36 16 17 mph 1017.4mb 55f 72f
6:30 15 17 mph 1017.4mb 55f 72f
6:24 16 17 mph 1017.4mb 55f -
6:18 16 17 mph 1017.5mb 55f -
6:12 17 20 mph 1017.5mb 55f -
6:06 18 21 mph 1017.6mb 55f -
6:00 18 21 mph 1017.6mb 55f -
5:36 16 18 mph 1017.7mb 54f -
5:30 13 15 mph 1017.7mb 54f -
5:24 13 14 mph 1017.7mb 54f -
5:18 9 11 mph 1017.8mb 53f -
5:12 2 3 mph 1017.7mb 53f 83f
5:06  -  2 mph 1017.7mb 53f 82f
5:00 1 2 mph 1017.8mb 53f 81f
4:54 1 2 mph 1017.8mb 53f 78f
4:48 2 3 mph 1017.9mb 53f 78f
4:36 3 5 mph 1018mb 54f 78f
4:30 5
mph
1018mb 54f 76f
4:24 3 5 mph 1018.1mb 54f 76f
4:18 5 6 mph 1018.1mb 54f 76f
4:12 6
mph
1018.2mb 54f 74f
4:06 6
mph
1018.2mb 54f 75f
4:00 6
mph
1018.3mb 54f 76f
3:54 5 6 mph 1018.4mb 54f 75f
3:48 5 6 mph 1018.5mb 54f 74f
3:36 7
mph
1018.6mb 55f 75f
3:30 6 7 mph 1018.6mb 55f 76f
3:24 6
mph
1018.7mb 55f 76f
3:18 6
mph
1018.8mb 55f 76f
3:12 6
mph
1018.8mb 55f 74f
3:06 6 7 mph 1018.9mb 55f 75f
3:00 7
mph
1019mb 55f 73f
2:54 6 7 mph 1019.1mb 55f 72f
2:48 6
mph
1019.1mb 55f 71f
2:36 6
mph
1019.2mb 54f 71f
2:30 5 6 mph 1019.3mb 54f 73f
2:24 5
mph
1019.3mb 54f 71f
2:18 6 7 mph 1019.3mb 54f 72f
2:12 6 7 mph 1019.3mb 54f 73f
2:06 6
mph
1019.4mb 55f 71f
2:00 5
mph
1019.4mb 55f 71f
1:54 5
mph
1019.5mb 55f 71f
1:48 5
mph
1019.5mb 55f 70f
1:36 5
mph
1019.5mb 54f 71f
1:30 5 6 mph 1019.6mb 54f 71f
1:24 5 6 mph 1019.6mb 54f 71f
1:18 5
mph
1019.6mb 54f 72f
1:12 3 5 mph 1019.6mb 54f 70f
1:06 3 5 mph 1019.7mb 54f 70f
1:00 5
mph
1019.7mb 54f 70f
12:54 3 5 mph 1019.8mb 54f 70f
12:48 5
mph
1019.8mb 54f 71f
12:36 5
mph
1019.9mb 54f 71f
12:30 5
mph
1020mb 54f 71f
12:24 5
mph
1020mb 55f 71f
12:18 5
mph
1020mb 55f 70f
12:12 6
mph
1020mb 55f 71f
12:06 5 6 mph 1020mb 55f 71f
12:00 5
mph
1020.1mb 55f 71f
11:54 5
mph
1020.1mb 55f 71f
11:48 5 6 mph 1020.2mb 55f 71f
11:36 6
mph
1020.2mb 55f 72f
11:30 5 6 mph 1020.2mb 55f 71f
11:24 5 6 mph 1020.2mb 55f 71f
11:18 5 6 mph 1020.2mb 55f 70f
11:12 5
mph
1020.2mb 55f 70f
11:06 5
mph
1020.2mb 55f 70f
11:00 5
mph
1020.2mb 55f 70f
10:54 5 6 mph 1020.1mb 55f 71f
10:48 5
mph
1020.2mb 55f 71f
10:36 5 6 mph 1020.1mb 55f 70f
10:30 5 6 mph 1020.2mb 55f 71f
10:24 3 6 mph 1020.2mb 55f 71f
10:18 5 6 mph 1020.2mb 55f 70f
10:12 5 7 mph 1020.3mb 54f 70f
10:06 3 6 mph 1020.3mb 54f 70f
10:00 3 5 mph 1020.3mb 54f 72f
9:54 5 7 mph 1020.4mb 54f 71f
9:48 5 6 mph 1020.4mb 54f 71f
9:36 5 7 mph 1020.4mb 54f 69f
9:30 5 6 mph 1020.5mb 54f 70f
9:24 3 5 mph 1020.5mb 54f 70f
9:18 3 5 mph 1020.5mb 54f 71f
9:12 2 3 mph 1020.6mb 54f 72f
9:06 3 6 mph 1020.6mb 54f 70f
9:00 3 5 mph 1020.6mb 54f 71f
8:54 3 5 mph 1020.6mb 54f 71f
8:48 3
mph
1020.6mb 54f 71f
8:36 2 5 mph 1020.6mb 54f 73f
8:30 2 5 mph 1020.7mb 54f 74f
8:24  -  3 mph 1020.7mb 54f 75f
8:18 1 5 mph 1020.6mb 54f 75f
8:12 1 2 mph 1020.6mb 54f 74f
8:06  -  2 mph 1020.6mb 54f 73f
8:00 2 6 mph 1020.6mb 54f 71f
7:54 3 5 mph 1020.6mb 54f 70f
7:48 2 5 mph 1020.6mb 55f 70f
7:36 2 3 mph 1020.6mb 55f 69f
7:30 2 3 mph 1020.5mb 55f 67f
7:24 2 3 mph 1020.4mb 55f 65f
7:18 2 5 mph 1020.4mb 55f 66f
7:12 2 5 mph 1020.4mb 55f 64f
7:06 5 6 mph 1020.3mb 55f 63f
7:00 3 5 mph 1020.2mb 55f 61f
6:54 3 5 mph - - -
6:48 3 5 mph 1020.2mb 54f 59f
6:36 2 3 mph 1020.1mb 54f 59f
6:30 2 3 mph 1020mb 55f 59f
6:24 3
mph
1019.9mb 55f 58f
6:18 2 3 mph 1019.9mb 55f 57f
6:12 2 3 mph - - -
6:06 1 3 mph 1019.8mb 55f 56f
6:00 2 3 mph 1019.8mb 55f 56f
5:54 3
mph
1019.8mb 55f 56f
5:48 2 5 mph 1019.7mb 55f 56f
5:36  -  mph - 55f 57f
5:30  -  mph - 55f 58f
5:24  -  mph - 55f 57f
5:18  -  mph - 55f 58f
5:12  -  mph - 55f 58f
5:06  -  mph - 55f 58f
5:00  -  mph - 55f 56f
mié 07/29 8:36  -  mph - 55f 69f
8:30  -  mph - 55f 69f
8:24  -  mph - 55f 69f
8:18  -  mph - 55f 69f
8:12  -  mph - 55f 68f
8:06  -  mph - 55f 69f
8:00  -  mph - 55f 69f
7:54  -  mph - 55f 69f
7:48  -  mph - 55f 68f
4:36  -  mph 1020.9mb 55f 69f
4:30  -  mph 1021mb 55f 71f
4:24  -  mph 1021mb 54f 71f
4:18  -  mph 1021mb 54f 76f
4:12  -  mph 1021mb 54f 74f
4:06  -  mph 1021mb 54f 75f
4:00  -  mph 1021mb 54f 75f
3:54  -  mph 1021.1mb 54f 74f
3:48  -  mph 1021.1mb 54f 73f
2:36  -  mph - - 69f
2:30  -  mph - - 70f
2:24  -  mph - - 70f
2:18  -  mph - - 69f
2:12  -  mph - - 69f
2:06  -  mph - - 69f
2:00  -  mph - - 69f
1:54  -  mph - - 69f
1:48  -  mph - - 69f
11:36  -  mph - 55f 65f
11:30  -  mph - 55f 65f
11:24  -  mph - 55f 63f
11:18  -  mph - 55f 63f
11:12  -  mph - 55f 62f
11:06  -  mph - 55f 61f
11:00  -  mph - 55f 60f
10:54  -  mph - 55f 60f
10:48  -  mph - 55f 59f
10:36  -  mph - 55f 60f
10:30  -  mph - 55f 59f
10:24  -  mph - 55f 59f
10:18  -  mph - 55f 59f
10:12  -  mph - 55f 62f
10:06  -  mph - 55f 62f
10:00  -  mph - 55f 62f
9:54  -  mph - 55f 62f
9:48  -  mph - 55f 59f
8:54 2 3 mph 1023.2mb 55f 59f
8:48 2 3 mph 1023.1mb 55f 60f
8:36 2 3 mph 1023.2mb 55f 57f
8:30 2 3 mph 1023.2mb 55f 57f
8:24 1 2 mph 1023.3mb 55f 56f
8:18 1 2 mph 1023.3mb 55f 56f
8:12  -  2 mph 1023.3mb 55f 56f
8:06  -  1 mph 1023.4mb 55f 56f
8:00 2
mph
1023.4mb 55f 56f
7:54 2
mph
1023.3mb 55f 56f
7:48 2 3 mph 1023.3mb 55f 56f
7:36 2 3 mph 1023.2mb 55f 55f
7:30 2
mph
1023.2mb 55f 55f
7:24 2
mph
1023.2mb 55f 55f
7:18 1 2 mph 1023.2mb 55f 56f
7:12 1
mph
1023.2mb 55f 55f
7:06 2 3 mph 1023.1mb 55f 55f
7:00 1 2 mph 1023.1mb 55f 54f
6:54 2
mph
1023mb 55f 54f
6:48 1 2 mph 1023mb 55f 53f
6:36 2 3 mph 1022.9mb 55f 52f
6:30 2 3 mph 1022.9mb 55f 52f
6:24 2 3 mph 1022.9mb 55f 51f
6:18 2 3 mph 1022.9mb 55f 51f
6:12 2 5 mph 1022.8mb 55f 50f
6:06 3 5 mph 1022.7mb 55f 50f
6:00 2 3 mph 1022.7mb 55f 51f
5:54 2 5 mph 1022.7mb 55f 50f
5:48 3 5 mph 1022.6mb 55f 51f
5:36 2 6 mph 1022.6mb 55f 52f
5:30 2 5 mph 1022.6mb 55f 53f
5:24 2 3 mph 1022.6mb 55f 52f
5:18  -  1 mph 1022.6mb 55f 51f
5:12 1 2 mph 1022.5mb 55f 51f
5:06 2 3 mph 1022.5mb 55f 52f
5:00 2 5 mph 1022.4mb 55f 53f
4:54  -  1 mph 1022.5mb 55f 53f
4:48  -  3 mph 1022.4mb 55f 53f
4:36 1 2 mph 1022.4mb 55f 52f
4:30 2 3 mph 1022.4mb 55f 53f
4:24 1 2 mph 1022.5mb 55f 54f
4:18 1
mph
1022.5mb 55f 54f
4:12 1
mph
1022.5mb 55f 53f
4:06  -  1 mph 1022.5mb 55f 53f
4:00 2
mph
1022.5mb 55f 53f
3:54 1 7 mph 1022.5mb 55f 54f
3:48 6 7 mph 1022.6mb 55f 54f
3:36 5
mph
1022.7mb 55f 54f
3:30 2 3 mph 1022.8mb 55f 54f
3:24 1 5 mph 1022.8mb 55f 54f
3:18 2 6 mph 1023mb 55f 54f
3:12 7 8 mph 1023mb 55f 54f
3:06 5 9 mph 1023.1mb 55f 54f
3:00 9 11 mph 1023mb 55f 54f
2:54 9 11 mph 1023mb 55f 54f
2:48 9 15 mph 1022.9mb 55f 54f
2:36 11 15 mph 1022.8mb 55f 55f
2:30 11 16 mph 1022.7mb 55f 55f
2:24 13 14 mph 1022.7mb 55f 56f
2:18 10 14 mph 1022.6mb 55f 56f
2:12 3 7 mph 1022.6mb 55f 57f
2:06 1 2 mph 1022.5mb 55f 57f
2:00  -  2 mph 1022.5mb 55f 58f
1:54 1 2 mph 1022.6mb 55f 58f
1:48 2 5 mph 1022.6mb 55f 58f
1:36 1 3 mph 1022.7mb 55f 58f
1:30 3 6 mph 1022.6mb 55f 58f
1:24 5 7 mph 1022.7mb 55f 58f
1:18 7 9 mph 1022.8mb 55f 59f
1:12 6 8 mph 1022.8mb 55f 59f
1:06 5 6 mph 1022.9mb 55f 60f
1:00 2 5 mph 1022.9mb 55f 60f
12:54 2 5 mph 1022.8mb 55f 60f
12:48 3 6 mph 1022.9mb 55f 61f
12:36 5 8 mph 1022.9mb 55f 61f
12:30 3 5 mph 1022.9mb 55f 61f
12:24 3 6 mph 1022.9mb 54f 61f
12:18 1 2 mph 1022.8mb 54f 60f
12:12  -  2 mph 1022.8mb 54f 61f
12:06 2 6 mph 1022.8mb 54f 61f
12:00 2 6 mph 1022.9mb 54f 61f
mar 07/28 11:54 2 7 mph 1022.9mb 54f 61f
11:48 3 6 mph 1022.9mb 54f 61f
11:36 6 11 mph 1022.9mb 54f 61f
11:30 8 14 mph 1022.9mb 54f 61f
11:24 9 13 mph 1022.9mb 54f 61f
11:18 11 14 mph 1022.9mb 54f 61f
11:12 8 11 mph 1022.9mb 54f 61f
11:06 7 10 mph 1023mb 54f 61f
11:00 6 8 mph 1023mb 54f 61f
10:54 3 9 mph 1023mb 54f 61f
10:48 8 13 mph 1023mb 54f 61f
10:36 11 14 mph 1023mb 54f 61f
10:30 11 14 mph 1023mb 53f 61f
10:24 9 14 mph 1023.1mb 53f 62f
10:18 8 9 mph 1023.1mb 53f 62f
10:12 6 9 mph 1023.1mb 53f 62f
10:06 8 11 mph 1023.2mb 53f 62f
10:00 8 16 mph 1023.1mb 53f 62f
9:54 10 15 mph 1023.1mb 53f 62f
9:48 13 16 mph 1023.1mb 53f 62f
9:36 10 15 mph 1023.2mb 53f 62f
9:30 9 15 mph 1023.2mb 53f 62f
9:24 9 13 mph 1023.1mb 53f 62f
9:18 7 10 mph 1023.1mb 53f 63f
9:12 8 14 mph 1023.1mb 53f 63f
9:06 9 15 mph 1023mb 53f 63f
9:00 11 17 mph 1022.9mb 53f 63f
8:54 10 13 mph 1022.9mb 53f 63f
8:48 10 13 mph 1022.8mb 53f 62f
8:36 14 16 mph 1022.7mb 53f 62f
8:30 16 17 mph 1022.7mb 53f 62f
8:24 13 15 mph 1022.7mb 54f 63f
8:18 8 10 mph 1022.7mb 54f 64f
8:12 10 13 mph 1022.7mb 54f 64f
8:06 10 14 mph 1022.8mb 54f 63f
8:00 10 13 mph 1022.8mb 54f 63f
7:54 10 14 mph 1022.8mb 54f 63f
7:48 11 14 mph 1022.9mb 54f 63f
7:36 13 15 mph 1023mb 54f 64f
7:30 13 15 mph 1023.1mb 55f 64f
7:24 10 14 mph 1023mb 55f 64f
7:18 13 14 mph 1023.1mb 55f 64f
7:12 14 17 mph 1023.1mb 55f 65f
7:06 14 18 mph 1023.1mb 56f 65f
7:00 17 21 mph 1023.1mb 56f 64f
6:54 18 21 mph 1023mb 56f 63f
6:48 16 18 mph 1023.1mb 56f 63f
6:36 14 17 mph 1023.2mb 56f 63f
6:30 16 18 mph 1023.2mb 56f 64f
6:24 15 16 mph 1023.3mb 56f 63f
6:18 11 17 mph 1023.4mb 56f 63f
6:12 16 20 mph 1023.4mb 56f 63f
6:06 17 20 mph 1023.4mb 56f 62f
6:00 16 20 mph 1023.4mb 56f 64f
5:54 16 21 mph 1023.4mb 56f 63f
5:48 18 21 mph 1023.4mb 56f 63f
5:36 15 17 mph 1023.5mb 56f 62f
5:30 14 18 mph 1023.6mb 56f 62f
5:24 17 21 mph 1023.6mb 56f 61f
5:18 16 20 mph 1023.6mb 56f 59f
5:12 16 20 mph 1023.7mb 56f 59f
5:06 18 20 mph 1023.7mb 56f 60f
5:00 18 21 mph 1023.7mb 56f 61f
4:54 16 21 mph 1023.7mb 56f 61f
4:48 17 20 mph 1023.7mb 56f 62f
4:36 17 20 mph 1023.7mb 56f 63f
4:30 16 20 mph 1023.8mb 56f 62f
4:24 17 20 mph 1023.8mb 56f 61f
4:18 17 21 mph 1023.9mb 56f 61f
4:12 18 22 mph 1024mb 56f 59f
4:06 18 21 mph 1024.1mb 56f 60f
4:00 20 22 mph 1024.2mb 56f 63f
3:54 17 21 mph 1024.2mb 56f 62f
3:48 20 22 mph 1024.3mb 56f 62f
3:36 17 20 mph 1024.3mb 55f 63f
3:30 16 17 mph 1024.2mb 55f 64f
3:24 15 17 mph 1024.3mb 55f 63f
3:18 15 17 mph 1024.4mb 55f 62f
3:12 14 17 mph 1024.5mb 55f 61f
3:06 17 20 mph 1024.5mb 55f 60f
3:00 16 18 mph 1024.5mb 55f 60f
2:54 16 21 mph 1024.6mb 55f 60f
2:48 16 18 mph 1024.7mb 55f 63f
2:36 15 18 mph 1024.7mb 55f 61f
2:30 17 21 mph 1024.8mb 55f 60f
2:24 16 20 mph 1024.9mb 55f 60f
2:18 16 18 mph 1024.9mb 55f 62f
2:12 15 17 mph 1024.9mb 55f 61f
2:06 16 17 mph 1024.9mb 55f 60f
2:00 16 18 mph 1025mb 55f 61f
1:54 16 18 mph 1025mb 55f 61f
1:48 17 18 mph 1025mb 55f 61f
1:36 16 18 mph 1025.1mb 55f 61f
1:30 15 18 mph 1025.1mb 55f 61f
1:24 15 17 mph 1025.1mb 55f 62f
1:18 15 17 mph 1025.2mb 55f 61f
1:12 15 17 mph 1025.2mb 55f 61f
1:06 15 18 mph 1025.3mb 55f 62f
1:00 14 15 mph 1025.3mb 55f 60f
12:54 15 16 mph 1025.3mb 55f 60f
12:48 14 17 mph 1025.3mb 55f 62f
12:36 15 17 mph 1025.3mb 55f 60f
12:30 15 17 mph 1025.3mb 55f 60f
12:24 14 16 mph 1025.4mb 55f 60f
12:18 13 16 mph 1025.4mb 55f 60f
12:12 14 15 mph 1025.4mb 55f 60f
12:06 15 17 mph 1025.5mb 55f 60f
12:00 15 17 mph 1025.5mb 55f 60f
11:54 16 18 mph 1025.5mb 55f 60f
11:48 14 18 mph 1025.5mb 55f 60f
11:36 13 15 mph 1025.4mb 55f 65f
11:30 13 16 mph 1025.5mb 55f 64f
11:24 13 15 mph 1025.4mb 55f 63f
11:18 13 15 mph 1025.4mb 55f 62f
11:12 13 14 mph 1025.4mb 55f 62f
11:06 13 14 mph 1025.4mb 55f 61f
11:00 13 15 mph 1025.4mb 55f 60f
10:36 11 14 mph 1025.5mb 55f 61f
10:30 11 13 mph 1025.5mb 55f 60f
10:24 11 14 mph 1025.5mb 55f 60f
10:18 11 14 mph 1025.6mb 55f 60f
10:12 10 13 mph 1025.6mb 55f 61f
10:06 10 13 mph 1025.6mb 55f 61f
10:00 10 14 mph 1025.6mb 55f 60f
9:36 11 13 mph 1025.5mb 55f 61f
9:30 10 14 mph 1025.5mb 55f 62f
9:24 11 13 mph 1025.6mb 55f 63f
9:18 10 11 mph 1025.7mb 55f 62f
9:12 10 11 mph 1025.6mb 55f 61f
9:06 10 11 mph 1025.6mb 55f 63f
9:00 10 13 mph 1025.7mb 55f 63f
8:54 11 13 mph 1025.7mb 55f 62f
8:48 11 14 mph 1025.7mb 55f 62f
8:36 13 14 mph 1025.7mb 55f 60f
8:30 13 15 mph 1025.8mb 55f 60f
8:24 13 15 mph 1025.7mb 55f 60f
8:18 13 14 mph 1025.7mb 55f 60f
8:12 11 13 mph 1025.7mb 55f 62f
8:06 11 14 mph 1025.6mb 55f 62f
8:00 11 14 mph 1025.6mb 55f 61f
7:54 11 14 mph 1025.6mb 55f 61f
7:48 10 13 mph 1025.6mb 55f 60f
7:36 9 11 mph 1025.4mb 55f 60f
7:30 8 13 mph 1025.4mb 55f 60f
7:24 8 11 mph 1025.3mb 55f 60f
7:18 8 10 mph 1025.2mb 55f 60f
7:12 7 9 mph 1025.2mb 55f 60f
7:06 7 13 mph 1025.2mb 55f 60f
7:00 6 8 mph 1025.2mb 55f 60f
6:54 6 7 mph 1025.2mb 55f 59f
6:48 3 7 mph 1025.1mb 55f 59f
6:36 6 9 mph 1025mb 55f 59f
6:30 6 8 mph 1025.1mb 55f 58f
6:24 6 9 mph 1025.1mb 55f 58f
6:18 6 9 mph 1025mb 55f 58f
6:12 5 7 mph 1025.1mb 55f 58f
6:06 5 8 mph 1025.2mb 55f 58f
6:00 5 8 mph 1025.2mb 55f 58f
5:54 5 7 mph 1025.1mb 55f 58f
5:48 3 6 mph 1025mb 55f 58f
5:36 5 8 mph 1025mb 55f 58f
5:30 6 9 mph 1025.1mb 55f 58f
5:24 6 9 mph 1025mb 55f 58f
5:18 5 7 mph 1025.1mb 55f 58f
5:12 5 9 mph 1025.1mb 55f 58f
5:06 7 13 mph 1025.1mb 55f 58f
5:00 6 9 mph 1025.1mb 55f 58f
4:54 5 7 mph 1025mb 55f 58f
4:48 6 8 mph 1024.9mb 55f 58f
4:36 5 8 mph 1024.9mb 55f 58f
4:30 5 8 mph 1025mb 55f 58f
4:24 3 6 mph 1025mb 55f 58f
4:18 5 8 mph 1024.9mb 55f 58f
4:12 7 10 mph 1024.9mb 55f 58f
4:06 7 9 mph 1024.9mb 55f 59f
4:00 7 10 mph 1024.7mb 55f 59f
3:54 8 11 mph 1024.7mb 55f 60f
3:48 5 9 mph 1024.7mb 55f 60f
3:36 5 8 mph 1024.6mb 55f 60f
3:30 5 8 mph 1024.6mb 55f 60f
3:24 5 8 mph 1024.5mb 55f 60f
3:18 8 10 mph 1024.5mb 55f 60f
3:12 6 10 mph 1024.5mb 55f 60f
3:06 6 8 mph 1024.5mb 55f 60f
3:00 6 9 mph 1024.5mb 55f 60f
2:54 7 11 mph 1024.5mb 55f 60f
2:48 6 10 mph 1024.4mb 55f 60f
2:36 6 8 mph 1024.3mb 55f 60f
2:30 5 7 mph 1024.3mb 55f 60f
2:24 3 10 mph 1024.2mb 55f 60f
2:18 6 9 mph 1024.2mb 55f 60f
2:12 6 10 mph 1024.2mb 55f 60f
2:06 7 13 mph 1024.2mb 55f 60f
2:00 7 13 mph 1024.3mb 55f 60f
1:54 10 14 mph 1024.4mb 55f 60f
1:48 8 14 mph 1024.4mb 55f 60f
1:36 10 15 mph 1024.4mb 55f 60f
1:30 9 14 mph 1024.4mb 55f 60f
1:24 9 13 mph 1024.4mb 55f 60f
1:18 6 11 mph 1024.4mb 55f 60f
1:12 7 11 mph 1024.3mb 55f 60f
1:06 6 11 mph 1024.3mb 55f 60f
1:00 8 11 mph 1024.4mb 55f 60f
12:54 6 10 mph 1024.3mb 55f 60f
12:48 7 13 mph 1024.3mb 55f 60f
12:36 8 13 mph 1024.3mb 56f 60f
12:30 7 14 mph 1024.3mb 55f 60f
12:24 8 14 mph 1024.3mb 55f 60f
12:18 8 14 mph 1024.3mb 55f 60f
12:12 6 11 mph 1024.3mb 55f 60f